Time;durP1;ratioP1;P1;durP2;ratioP2;P2;SDS_P1;SDS_P2;PMS_P1;PMS_P2;Temp;Humidity;BMP_temperature;BMP_pressure;BME280_temperature;BME280_humidity;BME280_pressure;Samples;Min_cycle;Max_cycle;Signal;HPM_P1;HPM_P2
2022/05/19 00:01:49;;;;;;;16.03;9.73;;;;;;;;;;5030404;28;98964;-76
2022/05/19 00:04:15;;;;;;;13.20;9.02;;;;;;;;;;5018859;28;100472;-76
2022/05/19 00:06:42;;;;;;;15.43;10.23;;;;;;;;;;5010633;28;100032;-76
2022/05/19 00:09:09;;;;;;;10.73;9.52;;;;;;;;;;5009186;28;101140;-76
2022/05/19 00:11:35;;;;;;;14.98;10.63;;;;;;;;;;5009614;28;98694;-75
2022/05/19 00:14:01;;;;;;;18.30;10.73;;;;;;;;;;5031569;27;99396;-76
2022/05/19 00:16:28;;;;;;;15.73;10.85;;;;;;;;;;5049747;27;100640;-77
2022/05/19 00:18:55;;;;;;;30.63;12.88;;;;;;;;;;5049465;27;98613;-78
2022/05/19 00:21:21;;;;;;;16.67;10.82;;;;;;;;;;5017101;27;100654;-78
2022/05/19 00:23:48;;;;;;;11.95;9.88;;;;;;;;;;5023016;28;100206;-78
2022/05/19 00:26:14;;;;;;;12.77;10.23;;;;;;;;;;5032545;28;98299;-78
2022/05/19 00:28:40;;;;;;;16.85;12.30;;;;;;;;;;5029232;28;100318;-78
2022/05/19 00:31:07;;;;;;;16.77;12.88;;;;;;;;;;5029609;28;98616;-78
2022/05/19 00:33:33;;;;;;;20.55;12.68;;;;;;;;;;5028107;28;99908;-78
2022/05/19 00:36:07;;;;;;;24.30;13.27;;;;;;;;;;5028871;28;99621;-78
2022/05/19 00:38:33;;;;;;;21.35;13.73;;;;;;;;;;5011268;28;98503;-78
2022/05/19 00:41:00;;;;;;;23.35;13.63;;;;;;;;;;5008779;28;99633;-78
2022/05/19 00:43:28;;;;;;;20.85;13.00;;;;;;;;;;5009036;28;100742;-78
2022/05/19 00:46:12;;;;;;;17.65;13.73;;;;;;;;;;5020762;28;98699;-78
2022/05/19 00:48:57;;;;;;;23.27;14.35;;;;;;;;;;5028596;28;99091;-75
2022/05/19 00:51:30;;;;;;;20.02;14.52;;;;;;;;;;5029315;27;97767;-78
2022/05/19 00:53:57;;;;;;;22.13;14.05;;;;;;;;;;5024127;28;99234;-78
2022/05/19 00:56:26;;;;;;;18.60;14.68;;;;;;;;;;5008579;28;100305;-78
2022/05/19 00:59:00;;;;;;;17.40;14.02;;;;;;;;;;5008389;28;99264;-78
2022/05/19 01:01:27;;;;;;;17.73;14.85;;;;;;;;;;5007896;28;100165;-76
2022/05/19 01:03:55;;;;;;;21.88;15.30;;;;;;;;;;5008941;28;100297;-76
2022/05/19 01:06:23;;;;;;;23.67;15.38;;;;;;;;;;5008315;28;98618;-76
2022/05/19 01:08:53;;;;;;;16.70;14.45;;;;;;;;;;5011340;28;100338;-76
2022/05/19 01:11:19;;;;;;;16.73;14.07;;;;;;;;;;5017026;28;99811;-76
2022/05/19 01:13:46;;;;;;;21.35;14.05;;;;;;;;;;5036940;27;99153;-76
2022/05/19 01:16:13;;;;;;;24.15;15.13;;;;;;;;;;5047878;27;98736;-76
2022/05/19 01:18:39;;;;;;;18.55;14.63;;;;;;;;;;5048915;27;99119;-76
2022/05/19 01:21:07;;;;;;;18.67;14.85;;;;;;;;;;5049249;27;100693;-76
2022/05/19 01:23:36;;;;;;;19.67;14.43;;;;;;;;;;5047301;27;101478;-76
2022/05/19 01:26:21;;;;;;;25.48;15.32;;;;;;;;;;5049147;27;98539;-76
2022/05/19 01:28:48;;;;;;;28.20;16.02;;;;;;;;;;5023840;27;99082;-76
2022/05/19 01:31:27;;;;;;;21.65;15.40;;;;;;;;;;5011653;28;100539;-77
2022/05/19 01:33:54;;;;;;;23.05;15.90;;;;;;;;;;5008740;28;99872;-77
2022/05/19 01:36:20;;;;;;;25.13;16.35;;;;;;;;;;5007631;28;100547;-77
2022/05/19 01:38:47;;;;;;;23.10;16.75;;;;;;;;;;5008286;28;98532;-77
2022/05/19 01:41:51;;;;;;;22.58;16.50;;;;;;;;;;5009563;28;98742;-77
2022/05/19 01:44:21;;;;;;;21.80;16.85;;;;;;;;;;4973336;28;100700;-77
2022/05/19 01:46:49;;;;;;;23.13;16.92;;;;;;;;;;5009198;27;98651;-76
2022/05/19 01:49:22;;;;;;;24.33;16.60;;;;;;;;;;5007342;28;99832;-77
2022/05/19 01:51:54;;;;;;;24.92;16.38;;;;;;;;;;5007019;28;100194;-77
2022/05/19 01:54:20;;;;;;;;;;;;;;;;;;5012172;28;98650;-77
2022/05/19 01:56:52;;;;;;;28.02;17.92;;;;;;;;;;5010565;28;129995;-77
2022/05/19 01:59:39;;;;;;;22.20;19.23;;;;;;;;;;5028447;28;98538;-77
2022/05/19 02:02:06;;;;;;;22.60;18.92;;;;;;;;;;5022434;28;100404;-77
2022/05/19 02:04:49;;;;;;;31.88;19.80;;;;;;;;;;5006658;28;100456;-77
2022/05/19 02:07:17;;;;;;;27.65;20.45;;;;;;;;;;5008757;28;97770;-77
2022/05/19 02:09:50;;;;;;;31.25;20.55;;;;;;;;;;5012259;28;98733;-77
2022/05/19 02:12:16;;;;;;;26.10;19.67;;;;;;;;;;5027050;28;100132;-77
2022/05/19 02:14:48;;;;;;;29.15;20.63;;;;;;;;;;5044507;27;99291;-77
2022/05/19 02:17:17;;;;;;;28.63;22.00;;;;;;;;;;5050715;27;99980;-77
2022/05/19 02:19:45;;;;;;;33.63;22.60;;;;;;;;;;5024194;27;98549;-77
2022/05/19 02:22:15;;;;;;;31.15;22.10;;;;;;;;;;5008176;28;100068;-77
2022/05/19 02:24:46;;;;;;;35.92;22.25;;;;;;;;;;5007478;28;100440;-77
2022/05/19 02:27:23;;;;;;;34.22;23.27;;;;;;;;;;5011792;28;98618;-76
2022/05/19 02:29:50;;;;;;;35.60;22.55;;;;;;;;;;5011505;28;100118;-77
2022/05/19 02:32:16;;;;;;;29.13;21.83;;;;;;;;;;5011001;28;99513;-77
2022/05/19 02:34:43;;;;;;;34.45;22.23;;;;;;;;;;5011094;28;98485;-77
2022/05/19 02:37:09;;;;;;;39.25;23.25;;;;;;;;;;5014303;28;99673;-77
2022/05/19 02:39:35;;;;;;;31.77;23.48;;;;;;;;;;5010646;28;99442;-77
2022/05/19 02:42:02;;;;;;;29.40;23.05;;;;;;;;;;5011229;28;100964;-77
2022/05/19 02:44:28;;;;;;;35.42;22.77;;;;;;;;;;5010621;28;102473;-77
2022/05/19 02:46:55;;;;;;;32.28;23.30;;;;;;;;;;5010534;28;98602;-77
2022/05/19 02:49:22;;;;;;;29.33;23.23;;;;;;;;;;5010841;28;100306;-76
2022/05/19 02:51:48;;;;;;;40.05;22.98;;;;;;;;;;5010428;28;99326;-77
2022/05/19 02:54:20;;;;;;;36.33;24.40;;;;;;;;;;5025497;28;98930;-77
2022/05/19 02:56:46;;;;;;;;;;;;;;;;;;5025498;28;99222;-77
2022/05/19 02:59:13;;;;;;;28.05;22.27;;;;;;;;;;5015233;28;128668;-77
2022/05/19 03:01:39;;;;;;;37.42;24.67;;;;;;;;;;5010155;28;100049;-77
2022/05/19 03:04:06;;;;;;;33.30;23.17;;;;;;;;;;5010151;28;100992;-77
2022/05/19 03:06:32;;;;;;;33.85;22.80;;;;;;;;;;5009819;28;98567;-77
2022/05/19 03:08:59;;;;;;;38.83;24.77;;;;;;;;;;5009876;28;100054;-77
2022/05/19 03:11:25;;;;;;;29.40;22.42;;;;;;;;;;5010612;28;100322;-77
2022/05/19 03:13:51;;;;;;;36.88;22.95;;;;;;;;;;5029853;27;99129;-77
2022/05/19 03:16:18;;;;;;;31.08;22.38;;;;;;;;;;5051422;27;100007;-77
2022/05/19 03:18:44;;;;;;;25.38;19.13;;;;;;;;;;5050876;27;100233;-77
2022/05/19 03:21:11;;;;;;;28.90;20.63;;;;;;;;;;5053891;27;97787;-77
2022/05/19 03:23:37;;;;;;;32.42;20.92;;;;;;;;;;5050391;27;100283;-76
2022/05/19 03:26:04;;;;;;;32.05;22.27;;;;;;;;;;5039134;27;99302;-76
2022/05/19 03:28:30;;;;;;;31.17;22.42;;;;;;;;;;5025108;28;100045;-76
2022/05/19 03:30:56;;;;;;;29.95;22.15;;;;;;;;;;5028892;28;99288;-76
2022/05/19 03:33:23;;;;;;;28.67;18.73;;;;;;;;;;5029610;28;98553;-76
2022/05/19 03:35:56;;;;;;;19.35;15.38;;;;;;;;;;5029944;28;99976;-76
2022/05/19 03:38:22;;;;;;;16.08;12.13;;;;;;;;;;5029142;28;100101;-76
2022/05/19 03:40:48;;;;;;;11.57;8.57;;;;;;;;;;5022698;28;99063;-76
2022/05/19 03:43:15;;;;;;;7.07;6.40;;;;;;;;;;5013292;28;99921;-76
2022/05/19 03:45:41;;;;;;;8.07;5.97;;;;;;;;;;5030115;28;97998;-77
2022/05/19 03:48:08;;;;;;;10.30;5.93;;;;;;;;;;5031216;28;99031;-77
2022/05/19 03:50:36;;;;;;;9.23;5.82;;;;;;;;;;5029114;27;99569;-77
2022/05/19 03:53:02;;;;;;;4.65;3.70;;;;;;;;;;5014236;28;99267;-77
2022/05/19 03:55:29;;;;;;;5.63;2.80;;;;;;;;;;5010521;28;100781;-76
2022/05/19 03:57:55;;;;;;;3.00;2.40;;;;;;;;;;5009652;28;100901;-76
2022/05/19 04:00:22;;;;;;;3.38;2.20;;;;;;;;;;5010328;28;98541;-76
2022/05/19 04:02:49;;;;;;;3.45;2.20;;;;;;;;;;5030624;28;99809;-76
2022/05/19 04:05:16;;;;;;;2.53;2.28;;;;;;;;;;5032983;28;100266;-77
2022/05/19 04:07:42;;;;;;;2.00;1.80;;;;;;;;;;5030188;28;98905;-76
2022/05/19 04:10:09;;;;;;;3.80;2.40;;;;;;;;;;5029820;28;99158;-76
2022/05/19 04:12:36;;;;;;;3.78;1.92;;;;;;;;;;5030920;28;99606;-76
2022/05/19 04:15:04;;;;;;;2.72;2.03;;;;;;;;;;5050132;27;101503;-76
2022/05/19 04:17:33;;;;;;;2.40;2.20;;;;;;;;;;5019965;27;100141;-76
2022/05/19 04:20:04;;;;;;;3.58;2.05;;;;;;;;;;5029584;28;98894;-76
2022/05/19 04:22:32;;;;;;;4.45;1.98;;;;;;;;;;5029883;28;98943;-76
2022/05/19 04:25:00;;;;;;;3.67;2.20;;;;;;;;;;5029285;28;100119;-76
2022/05/19 04:27:27;;;;;;;4.63;2.13;;;;;;;;;;5033471;28;98486;-76
2022/05/19 04:29:54;;;;;;;2.65;2.55;;;;;;;;;;5029841;28;100302;-76
2022/05/19 04:32:20;;;;;;;2.13;2.00;;;;;;;;;;5029347;28;98631;-76
2022/05/19 04:34:47;;;;;;;5.53;2.55;;;;;;;;;;5029895;28;99994;-74
2022/05/19 04:37:14;;;;;;;2.80;2.60;;;;;;;;;;5029509;28;99628;-74
2022/05/19 04:39:40;;;;;;;3.13;2.72;;;;;;;;;;5029233;27;99144;-76
2022/05/19 04:42:07;;;;;;;5.93;3.17;;;;;;;;;;5026258;28;99932;-76
2022/05/19 04:44:34;;;;;;;3.30;2.58;;;;;;;;;;5009206;28;100291;-76
2022/05/19 04:47:00;;;;;;;4.78;3.35;;;;;;;;;;5012441;28;98821;-76
2022/05/19 04:49:27;;;;;;;7.28;3.13;;;;;;;;;;5008398;28;100344;-76
2022/05/19 04:51:53;;;;;;;3.58;3.28;;;;;;;;;;5013279;28;98516;-76
2022/05/19 04:54:19;;;;;;;5.50;3.30;;;;;;;;;;5028599;28;98921;-76
2022/05/19 04:56:46;;;;;;;4.05;3.45;;;;;;;;;;5029875;28;101187;-77
2022/05/19 04:59:15;;;;;;;9.50;4.40;;;;;;;;;;5030037;28;98116;-77
2022/05/19 05:01:42;;;;;;;6.03;3.33;;;;;;;;;;5028983;28;99788;-76
2022/05/19 05:04:09;;;;;;;4.63;3.42;;;;;;;;;;5029430;28;100397;-76
2022/05/19 05:06:35;;;;;;;3.95;2.95;;;;;;;;;;5027822;28;99373;-76
2022/05/19 05:09:02;;;;;;;4.10;3.70;;;;;;;;;;5018040;28;100548;-76
2022/05/19 05:11:28;;;;;;;3.85;3.33;;;;;;;;;;5027335;28;98928;-76
2022/05/19 05:13:55;;;;;;;4.88;3.45;;;;;;;;;;5039399;27;99827;-76
2022/05/19 05:16:21;;;;;;;10.73;3.30;;;;;;;;;;5049225;27;100265;-77
2022/05/19 05:18:47;;;;;;;3.10;2.92;;;;;;;;;;5049907;27;98554;-77
2022/05/19 05:21:14;;;;;;;10.82;3.38;;;;;;;;;;5049229;27;100115;-77
2022/05/19 05:23:40;;;;;;;6.75;4.45;;;;;;;;;;5049960;27;100095;-77
2022/05/19 05:26:08;;;;;;;7.80;3.60;;;;;;;;;;5037215;27;98588;-77
2022/05/19 05:28:36;;;;;;;3.75;3.42;;;;;;;;;;5008608;28;99058;-77
2022/05/19 05:31:02;;;;;;;3.50;2.78;;;;;;;;;;5021095;28;101043;-77
2022/05/19 05:33:29;;;;;;;3.53;3.20;;;;;;;;;;5016955;28;100811;-77
2022/05/19 05:35:56;;;;;;;5.22;3.40;;;;;;;;;;5028315;28;100123;-77
2022/05/19 05:38:22;;;;;;;3.72;3.40;;;;;;;;;;5024515;28;99741;-77
2022/05/19 05:40:50;;;;;;;8.57;3.83;;;;;;;;;;5009220;28;100158;-77
2022/05/19 05:43:18;;;;;;;4.63;3.38;;;;;;;;;;5007659;28;99855;-77
2022/05/19 05:45:45;;;;;;;3.33;3.05;;;;;;;;;;5008947;28;98534;-77
2022/05/19 05:48:12;;;;;;;4.03;3.65;;;;;;;;;;5009542;28;100771;-76
2022/05/19 05:50:39;;;;;;;9.95;4.22;;;;;;;;;;5007969;28;100227;-76
2022/05/19 05:53:06;;;;;;;11.13;4.30;;;;;;;;;;5012079;28;98639;-76
2022/05/19 05:55:33;;;;;;;4.78;4.30;;;;;;;;;;5009364;28;101040;-76
2022/05/19 05:57:59;;;;;;;9.70;4.47;;;;;;;;;;5008761;28;98550;-76
2022/05/19 06:00:25;;;;;;;10.52;4.72;;;;;;;;;;5010317;28;104442;-76
2022/05/19 06:02:51;;;;;;;6.60;4.32;;;;;;;;;;5011549;28;100248;-76
2022/05/19 06:05:18;;;;;;;4.80;4.32;;;;;;;;;;5014532;28;98639;-76
2022/05/19 06:07:45;;;;;;;4.35;3.95;;;;;;;;;;5011597;28;99511;-76
2022/05/19 06:10:12;;;;;;;4.30;3.90;;;;;;;;;;5008927;28;100567;-76
2022/05/19 06:12:39;;;;;;;6.22;4.00;;;;;;;;;;5016391;28;97812;-77
2022/05/19 06:15:06;;;;;;;9.13;4.55;;;;;;;;;;5015465;28;99264;-77
2022/05/19 06:17:32;;;;;;;4.80;4.38;;;;;;;;;;5011184;28;98538;-77
2022/05/19 06:19:59;;;;;;;4.75;3.45;;;;;;;;;;5014907;28;99553;-77
2022/05/19 06:22:25;;;;;;;4.20;3.75;;;;;;;;;;5027314;27;100347;-77
2022/05/19 06:24:52;;;;;;;6.40;4.03;;;;;;;;;;5031342;28;99022;-77
2022/05/19 06:27:18;;;;;;;7.43;4.50;;;;;;;;;;5027190;28;99158;-77
2022/05/19 06:29:44;;;;;;;5.55;4.30;;;;;;;;;;5035980;27;99824;-77
2022/05/19 06:32:10;;;;;;;6.47;4.38;;;;;;;;;;5051815;27;99444;-77
2022/05/19 06:34:38;;;;;;;6.13;4.20;;;;;;;;;;5029663;27;99942;-77
2022/05/19 06:37:04;;;;;;;7.25;3.90;;;;;;;;;;5015877;28;99677;-77
2022/05/19 06:39:30;;;;;;;7.22;5.20;;;;;;;;;;5010245;28;99243;-77
2022/05/19 06:42:02;;;;;;;6.28;4.55;;;;;;;;;;5011138;28;99415;-77
2022/05/19 06:44:31;;;;;;;5.78;4.10;;;;;;;;;;5025482;27;99412;-77
2022/05/19 06:46:58;;;;;;;5.10;4.38;;;;;;;;;;5038108;27;100645;-77
2022/05/19 06:49:24;;;;;;;5.05;4.57;;;;;;;;;;5040492;27;100315;-80
2022/05/19 06:51:51;;;;;;;5.90;3.88;;;;;;;;;;5030068;27;98502;-80
2022/05/19 06:54:18;;;;;;;2.97;2.65;;;;;;;;;;5031247;28;99202;-81
2022/05/19 06:56:43;;;;;;;6.10;2.88;;;;;;;;;;5040856;27;100109;-80
2022/05/19 06:59:09;;;;;;;5.55;4.18;;;;;;;;;;5038451;27;99996;-81
2022/05/19 07:01:36;;;;;;;4.18;3.08;;;;;;;;;;5029194;28;99082;-80
2022/05/19 07:04:07;;;;;;;4.05;3.45;;;;;;;;;;5014616;28;100202;-78
2022/05/19 07:06:32;;;;;;;6.68;3.65;;;;;;;;;;5027175;28;100093;-78
2022/05/19 07:08:59;;;;;;;4.00;3.70;;;;;;;;;;5024752;28;101108;-78
2022/05/19 07:11:25;;;;;;;4.53;3.38;;;;;;;;;;5010969;28;99154;-78
2022/05/19 07:13:58;;;;;;;3.72;3.33;;;;;;;;;;5010849;28;99984;-78
2022/05/19 07:16:24;;;;;;;5.47;3.35;;;;;;;;;;5010908;28;100212;-78
2022/05/19 07:18:51;;;;;;;6.13;3.22;;;;;;;;;;5008618;27;99685;-78
2022/05/19 07:21:18;;;;;;;3.50;3.20;;;;;;;;;;5000653;28;99576;-78
2022/05/19 07:23:46;;;;;;;3.40;3.10;;;;;;;;;;5012547;28;100108;-78
2022/05/19 07:26:13;;;;;;;3.72;3.42;;;;;;;;;;5031002;28;100282;-78
2022/05/19 07:28:40;;;;;;;3.42;3.05;;;;;;;;;;5021901;28;99911;-78
2022/05/19 07:31:06;;;;;;;7.90;3.50;;;;;;;;;;5017919;28;99486;-78
2022/05/19 07:33:36;;;;;;;3.97;3.67;;;;;;;;;;5010598;27;99864;-77
2022/05/19 07:36:06;;;;;;;4.00;3.65;;;;;;;;;;5021306;27;103812;-78
2022/05/19 07:38:33;;;;;;;5.43;3.53;;;;;;;;;;5014771;27;99443;-78
2022/05/19 07:40:59;;;;;;;4.00;3.60;;;;;;;;;;5016660;28;100126;-78
2022/05/19 07:43:38;;;;;;;4.22;3.58;;;;;;;;;;5009389;28;98808;-75
2022/05/19 07:46:05;;;;;;;5.65;3.70;;;;;;;;;;5010730;28;99515;-75
2022/05/19 07:48:32;;;;;;;5.35;3.53;;;;;;;;;;5009202;28;99199;-75
2022/05/19 07:50:59;;;;;;;3.13;2.90;;;;;;;;;;5019049;28;99332;-76
2022/05/19 07:53:25;;;;;;;4.03;3.13;;;;;;;;;;5010694;28;99524;-76
2022/05/19 07:55:51;;;;;;;7.38;3.45;;;;;;;;;;5008128;28;100266;-76
2022/05/19 07:58:18;;;;;;;4.40;3.58;;;;;;;;;;5009281;28;99296;-78
2022/05/19 08:00:46;;;;;;;4.30;3.90;;;;;;;;;;5010044;28;100599;-77
2022/05/19 08:03:14;;;;;;;4.78;3.90;;;;;;;;;;5015758;28;98987;-77
2022/05/19 08:05:40;;;;;;;4.50;4.10;;;;;;;;;;5019995;27;100177;-77
2022/05/19 08:08:06;;;;;;;4.80;4.28;;;;;;;;;;5022165;27;99229;-77
2022/05/19 08:10:33;;;;;;;4.20;3.85;;;;;;;;;;5020049;28;98996;-77
2022/05/19 08:15:51;;;;;;;4.47;4.05;;;;;;;;;;5030699;27;99322;-76
2022/05/19 08:18:18;;;;;;;7.82;4.45;;;;;;;;;;5022863;28;100064;-78
2022/05/19 08:20:49;;;;;;;4.43;4.03;;;;;;;;;;5010466;28;99978;-77
2022/05/19 08:23:18;;;;;;;5.18;3.60;;;;;;;;;;5012461;28;101030;-76
2022/05/19 08:25:45;;;;;;;4.18;3.80;;;;;;;;;;5013295;28;99022;-76
2022/05/19 08:28:14;;;;;;;4.05;3.75;;;;;;;;;;5009986;28;99302;-76
2022/05/19 08:30:44;;;;;;;6.85;4.25;;;;;;;;;;5009300;28;98633;-76
2022/05/19 08:33:10;;;;;;;5.70;3.75;;;;;;;;;;5009941;28;99777;-76
2022/05/19 08:35:37;;;;;;;4.10;3.78;;;;;;;;;;5009314;28;100163;-77
2022/05/19 08:38:03;;;;;;;3.63;3.33;;;;;;;;;;5009533;28;98651;-76
2022/05/19 08:40:33;;;;;;;3.40;3.10;;;;;;;;;;5010143;28;100898;-77
2022/05/19 08:43:00;;;;;;;5.03;3.72;;;;;;;;;;5009697;28;100573;-77
2022/05/19 08:45:37;;;;;;;3.97;3.25;;;;;;;;;;5009046;28;99166;-77
2022/05/19 08:48:06;;;;;;;4.13;3.47;;;;;;;;;;5015536;28;100072;-77
2022/05/19 08:50:43;;;;;;;7.78;4.50;;;;;;;;;;5009237;28;98631;-77
2022/05/19 08:53:11;;;;;;;6.60;4.00;;;;;;;;;;5009650;28;99952;-77
2022/05/19 08:55:43;;;;;;;11.38;3.58;;;;;;;;;;5009168;28;99511;-77
2022/05/19 08:58:09;;;;;;;;;;;;;;;;;;5011812;28;98644;-77
2022/05/19 09:00:57;;;;;;;4.30;3.40;;;;;;;;;;5030144;28;98988;-77
2022/05/19 09:03:52;;;;;;;6.88;3.90;;;;;;;;;;5028778;28;99132;-77
2022/05/19 09:06:25;;;;;;;7.55;3.83;;;;;;;;;;4996091;27;98323;-77
2022/05/19 09:09:06;;;;;;;6.53;3.90;;;;;;;;;;5012877;28;99138;-77
2022/05/19 09:11:51;;;;;;;3.80;3.50;;;;;;;;;;5009462;28;98556;-77
2022/05/19 09:14:21;;;;;;;4.25;3.75;;;;;;;;;;5008263;28;99295;-77
2022/05/19 09:16:48;;;;;;;4.03;3.13;;;;;;;;;;5009252;28;100288;-77
2022/05/19 09:19:17;;;;;;;3.80;3.50;;;;;;;;;;5009595;28;98520;-77
2022/05/19 09:21:44;;;;;;;3.78;3.30;;;;;;;;;;5008582;28;100178;-76
2022/05/19 09:24:11;;;;;;;3.88;3.17;;;;;;;;;;5016917;28;100302;-77
2022/05/19 09:26:48;;;;;;;6.90;3.33;;;;;;;;;;5010515;28;98613;-77
2022/05/19 09:29:17;;;;;;;3.30;3.05;;;;;;;;;;5008927;28;100271;-77
2022/05/19 09:31:46;;;;;;;4.70;3.22;;;;;;;;;;5012665;28;99467;-77
2022/05/19 09:34:12;;;;;;;3.55;3.22;;;;;;;;;;5008970;28;99152;-77
2022/05/19 09:36:52;;;;;;;5.65;4.20;;;;;;;;;;5007898;28;100226;-77
2022/05/19 09:39:19;;;;;;;9.60;3.72;;;;;;;;;;5010879;28;100179;-77
2022/05/19 09:41:51;;;;;;;9.27;3.90;;;;;;;;;;5007938;28;100902;-77
2022/05/19 09:44:23;;;;;;;5.28;3.67;;;;;;;;;;5012470;28;99285;-76
2022/05/19 09:46:54;;;;;;;5.00;3.92;;;;;;;;;;5014616;28;99108;-77
2022/05/19 09:49:30;;;;;;;4.70;3.90;;;;;;;;;;5028273;28;99010;-77
2022/05/19 09:52:01;;;;;;;4.93;4.20;;;;;;;;;;5025752;28;99306;-77
2022/05/19 09:54:30;;;;;;;5.90;4.32;;;;;;;;;;5029449;28;98547;-77
2022/05/19 09:57:02;;;;;;;5.13;4.63;;;;;;;;;;5017349;28;98502;-76
2022/05/19 09:59:48;;;;;;;6.90;4.43;;;;;;;;;;5018001;28;98596;-77
2022/05/19 10:02:26;;;;;;;5.00;4.57;;;;;;;;;;5008456;28;100315;-76
2022/05/19 10:04:55;;;;;;;7.68;3.80;;;;;;;;;;5021045;27;101040;-76
2022/05/19 10:07:24;;;;;;;9.63;4.00;;;;;;;;;;5035983;27;98629;-76
2022/05/19 10:09:53;;;;;;;4.47;4.07;;;;;;;;;;5016522;28;99930;-76
2022/05/19 10:12:28;;;;;;;4.38;4.07;;;;;;;;;;5027308;28;99485;-81
2022/05/19 10:15:10;;;;;;;6.07;4.78;;;;;;;;;;5025840;28;99094;-76
2022/05/19 10:17:40;;;;;;;5.45;3.97;;;;;;;;;;5010890;28;99983;-77
2022/05/19 10:20:07;;;;;;;5.32;4.93;;;;;;;;;;5012096;28;98615;-77
2022/05/19 10:22:37;;;;;;;6.85;4.43;;;;;;;;;;5008952;28;100359;-77
2022/05/19 10:25:17;;;;;;;6.43;4.88;;;;;;;;;;5014505;27;100303;-77
2022/05/19 10:33:29;;;;;;;5.50;5.10;;;;;;;;;;5007973;28;100119;-73
2022/05/19 10:36:05;;;;;;;9.60;5.68;;;;;;;;;;5022856;28;98561;-78
2022/05/19 10:38:37;;;;;;;10.65;4.70;;;;;;;;;;5015579;28;99976;-78
2022/05/19 10:41:13;;;;;;;11.30;5.47;;;;;;;;;;5025151;28;99174;-76
2022/05/19 10:44:02;;;;;;;7.38;5.32;;;;;;;;;;5025253;28;100480;-76
2022/05/19 10:46:37;;;;;;;9.45;5.63;;;;;;;;;;5028356;27;100318;-75
2022/05/19 10:49:16;;;;;;;7.13;6.53;;;;;;;;;;5031794;28;97910;-76
2022/05/19 10:51:52;;;;;;;7.45;6.43;;;;;;;;;;5030280;28;98985;-76
2022/05/19 10:54:39;;;;;;;7.50;6.57;;;;;;;;;;5029546;28;99471;-76
2022/05/19 10:57:06;;;;;;;7.47;6.70;;;;;;;;;;5031345;28;99420;-75
2022/05/19 10:59:51;;;;;;;9.07;5.90;;;;;;;;;;5014651;27;104576;-76
2022/05/19 11:02:36;;;;;;;7.50;6.90;;;;;;;;;;5011430;28;100513;-75
2022/05/19 11:05:02;;;;;;;7.10;6.60;;;;;;;;;;5030775;27;98668;-75
2022/05/19 11:07:49;;;;;;;18.92;7.80;;;;;;;;;;5030991;27;100213;-75
2022/05/19 11:10:32;;;;;;;13.90;7.70;;;;;;;;;;5028792;28;98534;-75
2022/05/19 11:13:18;;;;;;;11.07;8.20;;;;;;;;;;5010637;28;98933;-75
2022/05/19 11:15:47;;;;;;;8.73;8.00;;;;;;;;;;5011164;28;99983;-74
2022/05/19 11:18:18;;;;;;;12.60;8.45;;;;;;;;;;5014047;27;98908;-74
2022/05/19 11:20:59;;;;;;;10.95;9.55;;;;;;;;;;5009989;28;99067;-75
2022/05/19 11:23:40;;;;;;;8.38;7.68;;;;;;;;;;5015248;28;100627;-75
2022/05/19 11:26:23;;;;;;;8.68;7.97;;;;;;;;;;5025045;28;98643;-75
2022/05/19 11:29:06;;;;;;;9.52;8.52;;;;;;;;;;5010414;28;100102;-77
2022/05/19 11:31:36;;;;;;;13.15;8.55;;;;;;;;;;5030306;27;98697;-76
2022/05/19 11:34:06;;;;;;;9.38;8.48;;;;;;;;;;5014812;28;99996;-75
2022/05/19 11:36:37;;;;;;;11.70;8.25;;;;;;;;;;5025833;28;99904;-76
2022/05/19 11:39:11;;;;;;;10.03;9.23;;;;;;;;;;5031029;28;98633;-75
2022/05/19 11:41:37;;;;;;;12.70;8.80;;;;;;;;;;5026079;28;99870;-75
2022/05/19 11:44:18;;;;;;;13.48;9.27;;;;;;;;;;5010616;28;99177;-75
2022/05/19 11:46:44;;;;;;;10.75;9.75;;;;;;;;;;5010849;28;98832;-75
2022/05/19 11:57:40;;;;;;;43.80;16.35;;;;;;;;;;5008293;28;100620;-75
2022/05/19 12:00:07;;;;;;;18.02;10.10;;;;;;;;;;5013311;28;99030;-76
2022/05/19 12:02:47;;;;;;;20.52;5.53;;;;;;;;;;5010132;28;98737;-74
2022/05/19 12:05:28;;;;;;;9.20;3.15;;;;;;;;;;5021270;28;99299;-73
2022/05/19 12:07:57;;;;;;;12.95;3.17;;;;;;;;;;5019433;28;97829;-73
2022/05/19 12:10:26;;;;;;;9.77;2.28;;;;;;;;;;5025347;28;99044;-74
2022/05/19 12:12:54;;;;;;;14.88;2.70;;;;;;;;;;5031595;28;100251;-76
2022/05/19 12:15:23;;;;;;;4.80;2.75;;;;;;;;;;5029740;28;100005;-78
2022/05/19 12:18:00;;;;;;;4.93;2.30;;;;;;;;;;5010637;28;100270;-77
2022/05/19 12:20:36;;;;;;;11.93;3.47;;;;;;;;;;5019467;28;100663;-76
2022/05/19 12:23:18;;;;;;;5.03;3.60;;;;;;;;;;5011440;28;99386;-77
2022/05/19 12:25:46;;;;;;;7.75;4.50;;;;;;;;;;5002425;28;101285;-76
2022/05/19 12:28:12;;;;;;;14.35;7.20;;;;;;;;;;5012784;28;98612;-76
2022/05/19 12:33:30;;;;;;;5.32;4.90;;;;;;;;;;5017352;28;98484;-76
2022/05/19 12:36:05;;;;;;;9.73;6.80;;;;;;;;;;5014044;28;98540;-76
2022/05/19 12:38:43;;;;;;;10.93;7.38;;;;;;;;;;5008795;28;100110;-78
2022/05/19 12:41:31;;;;;;;7.88;6.53;;;;;;;;;;5009016;28;100911;-78
2022/05/19 12:44:18;;;;;;;11.43;7.45;;;;;;;;;;5022901;28;101834;-78
2022/05/19 12:46:45;;;;;;;10.13;6.65;;;;;;;;;;5029332;28;100403;-78
2022/05/19 12:49:24;;;;;;;10.95;6.93;;;;;;;;;;5030202;28;98540;-78
2022/05/19 12:51:55;;;;;;;8.45;7.53;;;;;;;;;;5014978;27;99841;-78
2022/05/19 12:54:23;;;;;;;16.48;7.80;;;;;;;;;;5009890;28;100280;-78
2022/05/19 12:56:50;;;;;;;8.30;6.97;;;;;;;;;;5009945;28;98659;-81
2022/05/19 12:59:20;;;;;;;16.52;9.43;;;;;;;;;;5015080;28;98885;-77
2022/05/19 13:01:49;;;;;;;13.10;8.52;;;;;;;;;;5017880;27;98741;-78
2022/05/19 13:04:19;;;;;;;17.27;10.20;;;;;;;;;;5015939;28;100858;-78
2022/05/19 13:06:50;;;;;;;17.60;10.63;;;;;;;;;;5007286;28;100971;-77
2022/05/19 13:09:19;;;;;;;13.15;9.52;;;;;;;;;;5007920;28;98576;-78
2022/05/19 13:11:50;;;;;;;11.50;9.70;;;;;;;;;;5009182;28;101214;-77
2022/05/19 13:14:17;;;;;;;17.15;10.45;;;;;;;;;;5009486;28;100937;-77
2022/05/19 13:16:51;;;;;;;15.57;11.00;;;;;;;;;;5022111;28;98587;-78
2022/05/19 13:19:21;;;;;;;18.17;11.38;;;;;;;;;;5019209;27;99894;-78
2022/05/19 13:21:49;;;;;;;15.00;10.18;;;;;;;;;;5008926;28;99280;-78
2022/05/19 13:24:15;;;;;;;21.83;12.27;;;;;;;;;;5012472;28;100223;-78
2022/05/19 13:26:42;;;;;;;15.43;11.30;;;;;;;;;;5007487;28;99257;-76
2022/05/19 13:32:02;;;;;;;19.25;13.77;;;;;;;;;;5008369;28;99974;-76
2022/05/19 13:34:29;;;;;;;15.18;11.35;;;;;;;;;;5006918;28;100002;-76
2022/05/19 13:36:59;;;;;;;16.73;11.50;;;;;;;;;;5008370;28;99104;-78
2022/05/19 13:39:27;;;;;;;12.43;11.02;;;;;;;;;;5008584;28;100100;-77
2022/05/19 13:42:07;;;;;;;13.50;9.73;;;;;;;;;;5008436;28;100413;-77
2022/05/19 13:44:35;;;;;;;11.98;9.43;;;;;;;;;;5028513;28;99265;-75
2022/05/19 13:47:12;;;;;;;9.48;8.48;;;;;;;;;;5020832;28;100233;-75
2022/05/19 13:49:39;;;;;;;9.73;7.35;;;;;;;;;;5009145;28;97821;-75
2022/05/19 13:52:10;;;;;;;9.45;8.00;;;;;;;;;;5009987;28;99249;-75
2022/05/19 13:54:41;;;;;;;11.50;8.02;;;;;;;;;;5008599;28;100261;-75
2022/05/19 13:57:09;;;;;;;8.85;7.68;;;;;;;;;;5012280;28;101578;-75
2022/05/19 13:59:37;;;;;;;13.85;8.15;;;;;;;;;;5025233;27;100530;-75
2022/05/19 14:02:06;;;;;;;11.30;7.30;;;;;;;;;;5036709;27;100996;-76
2022/05/19 14:04:35;;;;;;;11.30;7.68;;;;;;;;;;5014475;27;98582;-76
2022/05/19 14:07:05;;;;;;;10.07;7.53;;;;;;;;;;5011121;28;100196;-76
2022/05/19 14:09:46;;;;;;;9.70;6.22;;;;;;;;;;5019231;28;98687;-76
2022/05/19 14:12:13;;;;;;;6.03;5.53;;;;;;;;;;5021655;28;101392;-76
2022/05/19 14:14:50;;;;;;;5.90;5.50;;;;;;;;;;5027918;27;99800;-76
2022/05/19 14:17:16;;;;;;;7.30;5.90;;;;;;;;;;5018792;27;98993;-76
2022/05/19 14:19:44;;;;;;;7.10;5.93;;;;;;;;;;5010033;28;99413;-76
2022/05/19 14:22:15;;;;;;;6.40;5.80;;;;;;;;;;5029985;27;101184;-75
2022/05/19 14:24:44;;;;;;;5.95;5.45;;;;;;;;;;5014869;28;98654;-75
2022/05/19 14:27:10;;;;;;;11.45;5.55;;;;;;;;;;5028879;28;99929;-76
2022/05/19 14:29:39;;;;;;;7.10;5.65;;;;;;;;;;5014735;27;98859;-75
2022/05/19 14:32:19;;;;;;;5.72;5.05;;;;;;;;;;5017633;28;99954;-75
2022/05/19 14:34:46;;;;;;;7.28;5.60;;;;;;;;;;5019666;27;101278;-75
2022/05/19 14:37:13;;;;;;;7.32;5.88;;;;;;;;;;5024284;28;98577;-75
2022/05/19 14:39:41;;;;;;;7.80;5.68;;;;;;;;;;5021440;28;99968;-75
2022/05/19 14:44:58;;;;;;;8.45;5.70;;;;;;;;;;5011218;28;98603;-75
2022/05/19 14:47:27;;;;;;;8.30;5.10;;;;;;;;;;5011432;28;99813;-75
2022/05/19 14:50:01;;;;;;;5.93;5.25;;;;;;;;;;5014889;28;99447;-75
2022/05/19 14:52:32;;;;;;;8.57;5.50;;;;;;;;;;5027749;28;99197;-75
2022/05/19 14:54:59;;;;;;;7.70;5.77;;;;;;;;;;5012575;28;99371;-75
2022/05/19 14:57:27;;;;;;;7.63;5.28;;;;;;;;;;5010928;28;98573;-75
2022/05/19 14:59:56;;;;;;;6.53;5.88;;;;;;;;;;5016487;28;100065;-76
2022/05/19 15:02:28;;;;;;;5.40;4.88;;;;;;;;;;5023318;28;100266;-76
2022/05/19 15:04:55;;;;;;;4.85;4.50;;;;;;;;;;5027336;28;97933;-76
2022/05/19 15:07:38;;;;;;;4.55;4.15;;;;;;;;;;5014091;28;98629;-75
2022/05/19 15:10:05;;;;;;;4.13;3.72;;;;;;;;;;5016864;28;100159;-76
2022/05/19 15:12:32;;;;;;;4.13;3.30;;;;;;;;;;5027642;28;99290;-76